createdAt,value
2018-07-23T00:01:07.187Z,21.17
2018-07-23T00:03:35.066Z,21.57
2018-07-23T00:06:02.682Z,21.63
2018-07-23T00:08:30.550Z,21.33
2018-07-23T00:10:58.424Z,22.07
2018-07-23T00:13:26.341Z,22.77
2018-07-23T00:15:54.292Z,23.50
2018-07-23T00:18:22.470Z,21.37
2018-07-23T00:20:54.118Z,22.50
2018-07-23T00:23:25.408Z,20.67
2018-07-23T00:25:53.220Z,21.97
2018-07-23T00:28:21.159Z,21.40
2018-07-23T00:30:52.441Z,21.47
2018-07-23T00:33:20.236Z,21.43
2018-07-23T00:35:48.062Z,22.53
2018-07-23T00:38:16.002Z,22.87
2018-07-23T00:40:43.713Z,22.83
2018-07-23T00:43:11.453Z,22.50
2018-07-23T00:45:40.195Z,21.77
2018-07-23T00:48:07.952Z,23.33
2018-07-23T00:50:35.985Z,23.07
2018-07-23T00:53:03.763Z,20.77
2018-07-23T00:55:31.531Z,22.43
2018-07-23T00:57:59.378Z,22.67
2018-07-23T01:00:27.358Z,22.60
2018-07-23T01:02:56.606Z,20.60
2018-07-23T01:05:24.831Z,23.77
2018-07-23T01:07:52.710Z,21.20
2018-07-23T01:10:20.620Z,22.63
2018-07-23T01:12:48.601Z,22.63
2018-07-23T01:15:16.461Z,22.00
2018-07-23T01:17:44.249Z,21.53
2018-07-23T01:20:12.112Z,21.77
2018-07-23T01:22:40.065Z,21.60
2018-07-23T01:25:07.938Z,23.97
2018-07-23T01:27:36.150Z,23.53
2018-07-23T01:30:04.487Z,22.67
2018-07-23T01:32:32.380Z,23.10
2018-07-23T01:35:00.274Z,22.43
2018-07-23T01:37:28.028Z,20.70
2018-07-23T01:39:55.977Z,22.73
2018-07-23T01:42:24.133Z,22.00
2018-07-23T01:44:51.970Z,21.80
2018-07-23T01:47:19.937Z,21.13
2018-07-23T01:49:53.652Z,21.07
2018-07-23T01:52:21.576Z,21.53
2018-07-23T01:54:49.450Z,22.37
2018-07-23T01:57:17.353Z,21.80
2018-07-23T01:59:45.214Z,22.20
2018-07-23T02:02:13.305Z,23.13
2018-07-23T02:04:41.311Z,22.50
2018-07-23T02:07:09.208Z,23.03
2018-07-23T02:09:37.032Z,23.57
2018-07-23T02:12:05.391Z,21.67
2018-07-23T02:14:34.592Z,23.70
2018-07-23T02:17:02.274Z,20.53
2018-07-23T02:19:30.534Z,21.33
2018-07-23T02:21:58.581Z,22.07
2018-07-23T02:24:26.421Z,22.73
2018-07-23T02:26:54.378Z,23.37
2018-07-23T02:29:22.546Z,23.77
2018-07-23T02:31:50.477Z,24.27
2018-07-23T02:34:18.357Z,24.53
2018-07-23T02:36:47.112Z,23.33
2018-07-23T02:39:14.925Z,24.83
2018-07-23T02:41:42.708Z,24.30
2018-07-23T02:44:10.506Z,24.30
2018-07-23T02:46:38.251Z,22.87
2018-07-23T02:49:06.021Z,23.53
2018-07-23T02:51:33.854Z,24.13
2018-07-23T02:54:01.775Z,25.40
2018-07-23T02:56:29.649Z,24.90
2018-07-23T02:58:57.544Z,24.20
2018-07-23T03:01:25.478Z,23.47
2018-07-23T03:03:55.724Z,22.30
2018-07-23T03:06:38.023Z,22.07
2018-07-23T03:09:06.739Z,22.50
2018-07-23T03:11:34.930Z,22.77
2018-07-23T03:14:02.964Z,22.93
2018-07-23T03:16:30.869Z,23.00
2018-07-23T03:18:58.827Z,22.00
2018-07-23T03:21:26.736Z,24.03
2018-07-23T03:23:55.162Z,22.93
2018-07-23T03:26:22.898Z,21.20
2018-07-23T03:28:50.903Z,22.63
2018-07-23T03:31:18.684Z,19.37
2018-07-23T03:33:46.758Z,19.43
2018-07-23T03:36:14.730Z,18.20
2018-07-23T03:38:42.780Z,18.50
2018-07-23T03:41:10.602Z,19.23
2018-07-23T03:43:38.476Z,20.73
2018-07-23T03:46:06.477Z,21.20
2018-07-23T03:48:34.314Z,21.30
2018-07-23T03:51:02.150Z,21.27
2018-07-23T03:53:30.126Z,21.87
2018-07-23T03:55:58.105Z,21.40
2018-07-23T03:58:26.117Z,22.57
2018-07-23T04:00:54.988Z,20.20
2018-07-23T04:03:23.417Z,22.23
2018-07-23T04:05:51.291Z,18.03
2018-07-23T04:08:19.155Z,20.10
2018-07-23T04:10:47.075Z,19.57
2018-07-23T04:13:14.935Z,21.57
2018-07-23T04:15:42.877Z,20.73
2018-07-23T04:18:10.805Z,18.40
2018-07-23T04:20:38.749Z,21.50
2018-07-23T04:23:06.836Z,21.23
2018-07-23T04:25:34.780Z,22.20
2018-07-23T04:28:02.753Z,17.43
2018-07-23T04:30:30.645Z,19.93
2018-07-23T04:32:58.416Z,19.87
2018-07-23T04:35:26.417Z,21.23
2018-07-23T04:37:54.393Z,20.97
2018-07-23T04:40:22.370Z,22.40
2018-07-23T04:42:50.235Z,23.80
2018-07-23T04:45:17.975Z,20.40
2018-07-23T04:47:45.821Z,21.77
2018-07-23T04:50:13.655Z,21.47
2018-07-23T04:52:41.584Z,20.73
2018-07-23T04:55:11.551Z,21.70
2018-07-23T04:57:39.243Z,22.87
2018-07-23T05:00:07.118Z,21.70
2018-07-23T05:02:34.781Z,17.07
2018-07-23T05:05:02.928Z,19.57
2018-07-23T05:07:30.961Z,19.77
2018-07-23T05:09:58.840Z,16.90
2018-07-23T05:12:26.785Z,22.10
2018-07-23T05:14:54.747Z,16.10
2018-07-23T05:17:22.556Z,18.67
2018-07-23T05:19:50.357Z,18.43
2018-07-23T05:22:28.916Z,17.47
2018-07-23T05:24:56.855Z,19.23
2018-07-23T05:27:24.860Z,15.33
2018-07-23T05:29:52.748Z,14.17
2018-07-23T05:32:21.215Z,14.97
2018-07-23T05:34:49.169Z,16.13
2018-07-23T05:37:16.912Z,16.57
2018-07-23T05:39:44.979Z,15.37
2018-07-23T05:42:12.800Z,14.93
2018-07-23T05:44:40.634Z,17.23
2018-07-23T05:47:08.604Z,18.43
2018-07-23T05:49:36.523Z,25.60
2018-07-23T05:52:04.490Z,15.63
2018-07-23T05:54:32.686Z,21.83
2018-07-23T05:57:00.957Z,16.93
2018-07-23T05:59:28.810Z,19.00
2018-07-23T06:01:56.967Z,20.90
2018-07-23T06:04:24.932Z,20.80
2018-07-23T06:06:52.872Z,20.53
2018-07-23T06:09:20.725Z,24.97
2018-07-23T06:11:48.772Z,17.60
2018-07-23T06:14:16.813Z,15.10
2018-07-23T06:16:45.711Z,16.10
2018-07-23T06:19:13.577Z,15.53
2018-07-23T06:21:41.551Z,17.47
2018-07-23T06:24:09.445Z,19.60
2018-07-23T06:26:37.579Z,17.13
2018-07-23T06:29:05.676Z,13.47
2018-07-23T06:31:33.662Z,17.80
2018-07-23T06:34:01.429Z,14.53
2018-07-23T06:36:29.269Z,13.57
2018-07-23T06:38:57.290Z,14.63
2018-07-23T06:41:25.434Z,16.73
2018-07-23T06:43:53.464Z,17.57
2018-07-23T06:46:21.343Z,17.13
2018-07-23T06:48:49.366Z,17.43
2018-07-23T06:51:17.296Z,16.33
2018-07-23T06:53:45.282Z,18.90
2018-07-23T06:56:13.290Z,17.33
2018-07-23T06:58:41.233Z,17.70
2018-07-23T07:01:09.185Z,17.20
2018-07-23T07:03:37.140Z,17.67
2018-07-23T07:06:05.106Z,16.97
2018-07-23T07:08:33.047Z,18.47
2018-07-23T07:11:01.100Z,18.30
2018-07-23T07:13:49.369Z,17.33
2018-07-23T07:16:17.253Z,19.30
2018-07-23T07:18:45.110Z,17.70
2018-07-23T07:21:12.954Z,19.27
2018-07-23T07:23:40.855Z,19.43
2018-07-23T07:26:09.071Z,18.77
2018-07-23T07:28:36.859Z,18.30
2018-07-23T07:31:06.842Z,19.00
2018-07-23T07:33:34.812Z,19.67
2018-07-23T07:36:02.597Z,18.67
2018-07-23T07:38:30.615Z,18.80
2018-07-23T07:40:58.493Z,18.30
2018-07-23T07:43:26.368Z,15.33
2018-07-23T07:45:54.310Z,16.97
2018-07-23T07:48:24.432Z,15.70
2018-07-23T07:50:52.423Z,16.30
2018-07-23T07:53:20.469Z,15.77
2018-07-23T07:55:48.261Z,15.83
2018-07-23T07:58:15.963Z,14.93
2018-07-23T08:00:44.028Z,17.03
2018-07-23T08:03:13.106Z,14.80
2018-07-23T08:05:41.134Z,14.73
2018-07-23T08:08:09.094Z,14.40
2018-07-23T08:10:37.195Z,14.30
2018-07-23T08:13:05.082Z,14.33
2018-07-23T08:15:32.950Z,13.57
2018-07-23T08:18:00.875Z,13.13
2018-07-23T08:20:28.968Z,16.43
2018-07-23T08:22:57.063Z,13.20
2018-07-23T08:25:27.027Z,21.33
2018-07-23T08:27:55.258Z,22.33
2018-07-23T08:30:23.191Z,13.67
2018-07-23T08:32:51.679Z,14.80
2018-07-23T08:35:19.565Z,11.33
2018-07-23T08:37:47.237Z,12.07
2018-07-23T08:40:14.884Z,12.33
2018-07-23T08:42:46.694Z,12.17
2018-07-23T08:45:14.495Z,14.70
2018-07-23T08:47:42.365Z,11.47
2018-07-23T08:50:10.287Z,11.77
2018-07-23T08:52:38.406Z,11.13
2018-07-23T08:55:06.360Z,13.30
2018-07-23T08:57:34.304Z,10.87
2018-07-23T09:00:02.174Z,9.43
2018-07-23T09:02:30.027Z,9.80
2018-07-23T09:04:57.849Z,9.53
2018-07-23T09:07:25.860Z,9.53
2018-07-23T09:09:53.774Z,9.30
2018-07-23T09:12:21.589Z,13.83
2018-07-23T09:14:49.530Z,12.00
2018-07-23T09:17:17.497Z,12.17
2018-07-23T09:19:45.251Z,10.80
2018-07-23T09:22:13.185Z,10.93
2018-07-23T09:24:41.434Z,11.53
2018-07-23T09:27:09.450Z,9.73
2018-07-23T09:29:37.484Z,11.43
2018-07-23T09:32:05.404Z,9.27
2018-07-23T09:34:33.421Z,10.27
2018-07-23T09:37:01.505Z,11.13
2018-07-23T09:39:29.525Z,11.57
2018-07-23T09:41:58.681Z,10.50
2018-07-23T09:44:26.663Z,10.73
2018-07-23T09:46:54.626Z,8.83
2018-07-23T09:49:22.806Z,8.30
2018-07-23T09:51:50.668Z,8.80
2018-07-23T09:54:18.653Z,11.07
2018-07-23T09:56:46.442Z,9.07
2018-07-23T09:59:14.300Z,9.23
2018-07-23T10:01:42.286Z,8.97
2018-07-23T10:04:10.137Z,9.40
2018-07-23T10:06:38.093Z,9.80
2018-07-23T10:09:08.209Z,8.63
2018-07-23T10:11:36.114Z,11.40
2018-07-23T10:14:04.248Z,10.87
2018-07-23T10:16:32.408Z,11.00
2018-07-23T10:19:00.427Z,10.17
2018-07-23T10:21:28.384Z,9.27
2018-07-23T10:23:56.408Z,8.93
2018-07-23T10:26:24.438Z,8.73
2018-07-23T10:28:52.513Z,8.57
2018-07-23T10:31:20.466Z,9.87
2018-07-23T10:33:56.454Z,8.43
2018-07-23T10:36:24.398Z,8.43
2018-07-23T10:38:52.330Z,10.37
2018-07-23T10:41:20.310Z,7.53
2018-07-23T10:43:48.234Z,8.93
2018-07-23T10:46:16.143Z,9.50
2018-07-23T10:48:44.066Z,8.77
2018-07-23T10:51:11.936Z,7.73
2018-07-23T10:53:39.963Z,6.17
2018-07-23T10:56:21.868Z,7.00
2018-07-23T10:58:49.773Z,6.60
2018-07-23T11:01:17.610Z,6.50
2018-07-23T11:03:52.683Z,6.90
2018-07-23T11:06:20.916Z,7.33
2018-07-23T11:08:49.001Z,8.07
2018-07-23T11:11:16.937Z,7.23
2018-07-23T11:13:44.837Z,7.33
2018-07-23T11:16:13.610Z,6.00
2018-07-23T11:18:41.493Z,5.90
2018-07-23T11:21:13.525Z,7.77
2018-07-23T11:23:41.498Z,7.07
2018-07-23T11:26:09.551Z,7.33
2018-07-23T11:28:37.557Z,6.80
2018-07-23T11:31:05.897Z,6.23
2018-07-23T11:36:26.994Z,8.13
2018-07-23T11:38:56.046Z,9.90
2018-07-23T11:41:24.056Z,6.43
2018-07-23T11:43:51.915Z,7.77
2018-07-23T11:46:24.983Z,7.33
2018-07-23T11:48:47.587Z,6.97
2018-07-23T11:51:15.610Z,6.70
2018-07-23T11:53:43.678Z,7.20
2018-07-23T11:56:11.449Z,6.73
2018-07-23T11:58:51.229Z,6.50
2018-07-23T12:01:19.085Z,5.93
2018-07-23T12:03:47.037Z,6.40
2018-07-23T12:06:14.883Z,5.57
2018-07-23T12:08:42.835Z,6.53
2018-07-23T12:11:10.649Z,6.73
2018-07-23T12:13:38.436Z,5.97
2018-07-23T12:16:06.526Z,5.80
2018-07-23T12:18:37.965Z,6.07
2018-07-23T12:21:06.201Z,5.77
2018-07-23T12:23:34.032Z,6.47
2018-07-23T12:26:02.156Z,9.27
2018-07-23T12:28:29.866Z,6.77
2018-07-23T12:30:57.683Z,5.50
2018-07-23T12:33:25.538Z,7.03
2018-07-23T12:35:53.542Z,5.63
2018-07-23T12:38:21.681Z,10.03
2018-07-23T12:40:49.552Z,6.17
2018-07-23T12:43:17.436Z,5.50
2018-07-23T12:45:45.323Z,5.53
2018-07-23T12:48:13.105Z,5.50
2018-07-23T12:50:41.021Z,5.60
2018-07-23T12:53:21.149Z,6.00
2018-07-23T12:55:48.875Z,5.33
2018-07-23T12:58:16.774Z,5.13
2018-07-23T13:00:44.681Z,6.13
2018-07-23T13:03:12.637Z,5.53
2018-07-23T13:05:40.532Z,5.23
2018-07-23T13:08:08.369Z,5.43
2018-07-23T13:10:36.175Z,5.07
2018-07-23T13:13:16.057Z,5.43
2018-07-23T13:15:43.930Z,9.57
2018-07-23T13:18:16.036Z,5.40
2018-07-23T13:20:43.994Z,5.20
2018-07-23T13:23:12.055Z,5.80
2018-07-23T13:25:39.999Z,8.90
2018-07-23T13:28:08.130Z,6.17
2018-07-23T13:30:36.105Z,6.23
2018-07-23T13:33:04.195Z,6.37
2018-07-23T13:35:32.254Z,6.83
2018-07-23T13:38:00.376Z,7.70
2018-07-23T13:40:28.294Z,5.97
2018-07-23T13:42:56.364Z,5.70
2018-07-23T13:45:24.260Z,5.73
2018-07-23T13:47:52.288Z,6.50
2018-07-23T13:50:20.277Z,6.23
2018-07-23T13:52:48.207Z,5.90
2018-07-23T13:55:27.415Z,7.23
2018-07-23T13:57:55.410Z,7.30
2018-07-23T14:00:23.503Z,6.70
2018-07-23T14:02:51.831Z,5.87
2018-07-23T14:05:19.817Z,7.70
2018-07-23T14:07:47.930Z,6.27
2018-07-23T14:10:15.847Z,6.30
2018-07-23T14:12:43.931Z,6.20
2018-07-23T14:15:11.972Z,6.73
2018-07-23T14:17:39.887Z,6.80
2018-07-23T14:20:07.925Z,6.03
2018-07-23T14:22:35.883Z,6.63
2018-07-23T14:25:04.121Z,6.80
2018-07-23T14:27:32.069Z,6.60
2018-07-23T14:30:00.396Z,7.17
2018-07-23T14:32:32.944Z,6.77
2018-07-23T14:35:00.965Z,6.93
2018-07-23T14:37:28.906Z,7.17
2018-07-23T14:39:56.869Z,6.37
2018-07-23T14:42:25.110Z,6.27
2018-07-23T14:44:53.021Z,5.70
2018-07-23T14:47:21.099Z,6.20
2018-07-23T14:49:54.319Z,6.17
2018-07-23T14:52:22.457Z,6.10
2018-07-23T14:54:50.303Z,6.20
2018-07-23T14:57:18.299Z,5.70
2018-07-23T14:59:46.355Z,6.00
2018-07-23T15:02:14.286Z,5.37
2018-07-23T15:04:42.499Z,6.20
2018-07-23T15:07:10.643Z,6.20
2018-07-23T15:09:39.107Z,6.53
2018-07-23T15:12:07.549Z,5.80
2018-07-23T15:14:36.751Z,5.57
2018-07-23T15:17:05.619Z,8.57
2018-07-23T15:19:33.868Z,6.27
2018-07-23T15:22:01.831Z,6.30
2018-07-23T15:24:29.772Z,5.40
2018-07-23T15:26:57.915Z,5.70
2018-07-23T15:29:25.924Z,5.40
2018-07-23T15:31:59.545Z,5.10
2018-07-23T15:34:27.524Z,5.80
2018-07-23T15:36:55.482Z,5.87
2018-07-23T15:39:23.415Z,5.00
2018-07-23T15:41:51.477Z,5.13
2018-07-23T15:44:19.537Z,5.23
2018-07-23T15:46:47.282Z,5.03
2018-07-23T15:49:15.311Z,6.17
2018-07-23T15:51:43.285Z,5.57
2018-07-23T15:54:11.298Z,5.40
2018-07-23T15:56:39.296Z,5.23
2018-07-23T15:59:07.366Z,6.30
2018-07-23T16:01:35.156Z,5.40
2018-07-23T16:04:03.370Z,5.93
2018-07-23T16:06:31.452Z,6.63
2018-07-23T16:08:59.317Z,6.10
2018-07-23T16:11:27.297Z,4.53
2018-07-23T16:13:55.768Z,5.27
2018-07-23T16:16:23.780Z,4.90
2018-07-23T16:18:51.609Z,4.67
2018-07-23T16:21:19.614Z,4.80
2018-07-23T16:23:47.626Z,4.73
2018-07-23T16:26:15.727Z,4.67
2018-07-23T16:28:43.735Z,4.73
2018-07-23T16:31:12.105Z,4.53
2018-07-23T16:33:40.092Z,6.27
2018-07-23T16:36:07.996Z,4.40
2018-07-23T16:38:36.033Z,4.70
2018-07-23T16:41:04.166Z,4.20
2018-07-23T16:43:32.134Z,4.97
2018-07-23T16:46:00.032Z,4.37
2018-07-23T16:48:28.037Z,4.70
2018-07-23T16:50:55.989Z,4.60
2018-07-23T16:53:24.077Z,4.70
2018-07-23T16:55:51.922Z,4.17
2018-07-23T16:58:19.831Z,5.07
2018-07-23T17:00:47.837Z,5.00
2018-07-23T17:03:15.756Z,4.60
2018-07-23T17:05:45.692Z,4.70
2018-07-23T17:08:15.142Z,4.70
2018-07-23T17:10:43.169Z,6.30
2018-07-23T17:13:12.058Z,4.30
2018-07-23T17:15:39.956Z,5.03
2018-07-23T17:18:08.190Z,4.73
2018-07-23T17:20:36.014Z,4.63
2018-07-23T17:23:04.459Z,4.40
2018-07-23T17:25:32.482Z,4.50
2018-07-23T17:28:00.686Z,4.93
2018-07-23T17:30:28.659Z,4.90
2018-07-23T17:32:58.892Z,6.07
2018-07-23T17:35:26.856Z,5.53
2018-07-23T17:37:54.790Z,4.60
2018-07-23T17:40:22.804Z,6.63
2018-07-23T17:42:50.633Z,5.20
2018-07-23T17:45:18.847Z,4.90
2018-07-23T17:47:46.638Z,4.70
2018-07-23T17:50:14.569Z,7.13
2018-07-23T17:52:42.376Z,5.37
2018-07-23T17:55:10.642Z,5.70
2018-07-23T17:57:38.519Z,5.13
2018-07-23T18:00:06.489Z,5.53
2018-07-23T18:02:34.538Z,5.13
2018-07-23T18:05:02.571Z,5.00
2018-07-23T18:07:30.491Z,4.87
2018-07-23T18:09:58.582Z,5.13
2018-07-23T18:12:26.426Z,5.57
2018-07-23T18:14:54.521Z,5.53
2018-07-23T18:17:22.538Z,5.23
2018-07-23T18:19:50.350Z,5.63
2018-07-23T18:22:19.278Z,5.33
2018-07-23T18:24:47.108Z,5.47
2018-07-23T18:27:15.007Z,5.43
2018-07-23T18:29:42.870Z,5.10
2018-07-23T18:32:10.876Z,5.10
2018-07-23T18:34:38.781Z,5.40
2018-07-23T18:37:06.640Z,4.87
2018-07-23T18:39:34.534Z,5.10
2018-07-23T18:42:02.726Z,5.10
2018-07-23T18:44:30.641Z,5.50
2018-07-23T18:47:01.759Z,5.07
2018-07-23T18:49:43.233Z,5.80
2018-07-23T18:52:11.801Z,7.30
2018-07-23T18:54:40.371Z,6.03
2018-07-23T18:57:09.133Z,5.40
2018-07-23T18:59:37.222Z,5.03
2018-07-23T19:02:06.586Z,8.00
2018-07-23T19:04:34.675Z,5.50
2018-07-23T19:07:02.638Z,5.87
2018-07-23T19:09:30.957Z,5.77
2018-07-23T19:12:02.033Z,5.30
2018-07-23T19:14:30.111Z,5.40
2018-07-23T19:16:59.168Z,5.50
2018-07-23T19:19:27.287Z,5.37
2018-07-23T19:21:55.301Z,5.33
2018-07-23T19:24:26.907Z,4.97
2018-07-23T19:26:54.692Z,6.03
2018-07-23T19:29:22.916Z,6.33
2018-07-23T19:32:09.185Z,7.43
2018-07-23T19:34:37.143Z,6.50
2018-07-23T19:37:05.346Z,6.80
2018-07-23T19:39:33.378Z,6.20
2018-07-23T19:42:01.377Z,6.23
2018-07-23T19:44:29.344Z,6.30
2018-07-23T19:46:57.422Z,6.00
2018-07-23T19:49:25.533Z,6.33
2018-07-23T19:51:53.465Z,5.90
2018-07-23T19:54:21.443Z,5.63
2018-07-23T19:56:49.321Z,6.53
2018-07-23T19:59:17.202Z,6.30
2018-07-23T20:01:53.172Z,6.93
2018-07-23T20:04:22.021Z,6.33
2018-07-23T20:06:49.997Z,7.03
2018-07-23T20:09:19.637Z,7.70
2018-07-23T20:11:47.676Z,6.93
2018-07-23T20:14:15.609Z,7.00
2018-07-23T20:16:43.723Z,7.27
2018-07-23T20:19:11.569Z,6.93
2018-07-23T20:21:39.574Z,5.93
2018-07-23T20:24:07.642Z,6.60
2018-07-23T20:26:35.465Z,7.77
2018-07-23T20:29:03.397Z,7.70
2018-07-23T20:31:31.443Z,8.53
2018-07-23T20:33:59.300Z,7.80
2018-07-23T20:36:31.695Z,8.13
2018-07-23T20:39:00.450Z,7.67
2018-07-23T20:41:28.531Z,8.10
2018-07-23T20:43:56.715Z,7.83
2018-07-23T20:46:24.642Z,7.83
2018-07-23T20:48:53.069Z,8.97
2018-07-23T20:51:21.012Z,9.03
2018-07-23T20:53:48.900Z,8.40
2018-07-23T20:56:39.479Z,8.70
2018-07-23T20:59:07.263Z,9.47
2018-07-23T21:01:35.285Z,10.03
2018-07-23T21:04:03.347Z,9.37
2018-07-23T21:06:31.287Z,7.67
2018-07-23T21:09:00.192Z,9.03
2018-07-23T21:11:28.140Z,10.43
2018-07-23T21:13:58.304Z,9.43
2018-07-23T21:16:26.238Z,8.90
2018-07-23T21:18:56.345Z,8.77
2018-07-23T21:21:24.293Z,8.33
2018-07-23T21:23:52.134Z,9.47
2018-07-23T21:26:19.954Z,9.10
2018-07-23T21:28:47.771Z,8.93
2018-07-23T21:31:15.634Z,8.63
2018-07-23T21:33:43.515Z,10.30
2018-07-23T21:36:11.391Z,9.17
2018-07-23T21:38:39.226Z,9.47
2018-07-23T21:41:12.001Z,8.07
2018-07-23T21:43:39.770Z,11.70
2018-07-23T21:46:07.784Z,7.93
2018-07-23T21:48:36.616Z,8.37
2018-07-23T21:51:04.466Z,11.30
2018-07-23T21:53:32.337Z,8.63
2018-07-23T21:56:06.884Z,9.63
2018-07-23T21:58:35.038Z,8.80
2018-07-23T22:01:02.843Z,8.00
2018-07-23T22:03:31.258Z,8.77
2018-07-23T22:05:59.458Z,10.57
2018-07-23T22:08:27.231Z,8.23
2018-07-23T22:10:56.180Z,9.43
2018-07-23T22:13:24.061Z,8.23
2018-07-23T22:15:52.040Z,9.33
2018-07-23T22:18:19.929Z,10.47
2018-07-23T22:20:48.011Z,10.73
2018-07-23T22:23:15.785Z,11.90
2018-07-23T22:25:43.680Z,10.73
2018-07-23T22:28:11.594Z,9.93
2018-07-23T22:30:39.430Z,9.10
2018-07-23T22:33:07.405Z,10.73
2018-07-23T22:35:35.300Z,9.67
2018-07-23T22:38:03.383Z,9.03
2018-07-23T22:40:31.224Z,8.33
2018-07-23T22:42:59.223Z,10.67
2018-07-23T22:45:27.137Z,10.97
2018-07-23T22:47:55.050Z,9.90
2018-07-23T22:50:22.961Z,11.03
2018-07-23T22:52:50.870Z,8.60
2018-07-23T22:55:18.720Z,9.63
2018-07-23T22:57:46.920Z,9.60
2018-07-23T23:00:14.676Z,9.17
2018-07-23T23:02:42.899Z,10.70
2018-07-23T23:05:11.063Z,8.53
2018-07-23T23:07:38.884Z,10.60
2018-07-23T23:10:12.937Z,11.67
2018-07-23T23:12:40.789Z,10.00
2018-07-23T23:15:09.363Z,11.43
2018-07-23T23:17:37.244Z,8.90
2018-07-23T23:20:05.699Z,11.43
2018-07-23T23:22:34.611Z,9.80
2018-07-23T23:25:02.558Z,10.20
2018-07-23T23:27:30.554Z,9.80
2018-07-23T23:29:59.650Z,11.47
2018-07-23T23:32:27.844Z,10.83
2018-07-23T23:34:55.975Z,10.07
2018-07-23T23:37:23.870Z,10.20
2018-07-23T23:39:52.388Z,10.80
2018-07-23T23:42:20.335Z,10.70
2018-07-23T23:44:48.295Z,10.47
2018-07-23T23:47:16.141Z,10.27
2018-07-23T23:49:56.821Z,10.23
2018-07-23T23:52:24.765Z,10.33
2018-07-23T23:54:52.805Z,10.37
2018-07-23T23:57:20.742Z,12.23
2018-07-23T23:59:48.584Z,9.33
